Time;durP1;ratioP1;P1;durP2;ratioP2;P2;SDS_P1;SDS_P2;PMS_P1;PMS_P2;Temp;Humidity;BMP_temperature;BMP_pressure;BME280_temperature;BME280_humidity;BME280_pressure;Samples;Min_cycle;Max_cycle;Signal;HPM_P1;HPM_P2
2021/09/08 00:00:55;;;;;;;7.80;5.57;;;;;;;12.09;92.79;96636.94;5263059;56;20129;-76
2021/09/08 00:05:58;;;;;;;11.10;7.03;;;;;;;12.17;92.70;96632.59;5262859;56;20116;-76
2021/09/08 00:11:00;;;;;;;8.07;6.55;;;;;;;12.22;91.93;96623.66;5262405;56;20120;-76
2021/09/08 00:16:03;;;;;;;8.20;6.60;;;;;;;12.14;92.17;96630.78;5262383;56;20116;-76
2021/09/08 00:21:06;;;;;;;9.52;6.85;;;;;;;11.96;92.40;96628.78;5262366;56;20125;-76
2021/09/08 00:26:08;;;;;;;8.02;6.60;;;;;;;11.86;92.31;96616.19;5262299;56;20124;-76
2021/09/08 00:31:10;;;;;;;7.90;6.38;;;;;;;11.82;92.48;96612.03;5262282;56;20566;-76
2021/09/08 00:36:13;;;;;;;11.55;7.57;;;;;;;11.82;92.35;96612.03;5262365;56;20124;-76
2021/09/08 00:41:15;;;;;;;8.75;6.47;;;;;;;11.76;91.93;96597.28;5262267;56;20125;-77
2021/09/08 00:46:17;;;;;;;9.45;6.97;;;;;;;11.67;91.69;96595.28;5262127;56;20124;-76
2021/09/08 00:51:20;;;;;;;6.85;6.07;;;;;;;11.57;92.19;96595.72;5262023;56;20674;-77
2021/09/08 00:56:24;;;;;;;8.18;6.13;;;;;;;11.63;92.15;96593.88;5262180;56;21055;-76
2021/09/08 01:01:26;;;;;;;12.30;5.82;;;;;;;11.57;92.00;96585.44;5261968;56;20891;-76
2021/09/08 01:06:29;;;;;;;7.95;6.07;;;;;;;11.51;92.17;96588.03;5253085;56;20125;-76
2021/09/08 01:11:33;;;;;;;7.78;6.10;;;;;;;11.45;92.21;96583.59;5261771;56;20596;-76
2021/09/08 01:16:35;;;;;;;7.40;6.30;;;;;;;11.38;92.14;96581.13;5261688;56;20133;-76
2021/09/08 01:21:37;;;;;;;5.90;5.13;;;;;;;11.35;92.15;96576.53;5262482;56;20117;-76
2021/09/08 01:26:45;;;;;;;6.72;5.55;;;;;;;11.28;92.46;96582.34;5265019;56;20727;-76
2021/09/08 01:31:56;;;;;;;5.18;4.68;;;;;;;11.25;92.58;96577.75;5265101;56;20643;-76
2021/09/08 01:36:58;;;;;;;5.97;5.25;;;;;;;11.20;92.41;96573.59;5264837;56;20120;-76
2021/09/08 01:42:01;;;;;;;8.57;5.68;;;;;;;11.13;92.36;96568.34;5264805;56;20120;-75
2021/09/08 01:47:03;;;;;;;5.30;4.78;;;;;;;10.96;92.22;96564.34;5264595;56;20125;-77
2021/09/08 01:52:06;;;;;;;9.05;5.70;;;;;;;10.92;92.43;96560.19;5264629;56;20138;-77
2021/09/08 01:57:08;;;;;;;8.82;6.22;;;;;;;10.89;92.72;96553.59;5264426;56;20147;-77
2021/09/08 02:02:10;;;;;;;9.35;6.93;;;;;;;10.87;92.53;96538.69;5264516;56;20809;-75
2021/09/08 02:07:13;;;;;;;8.00;6.05;;;;;;;10.77;92.86;96546.97;5264185;56;20220;-76
2021/09/08 02:12:16;;;;;;;12.55;6.20;;;;;;;10.77;92.63;96546.97;5264466;56;20125;-76
2021/09/08 02:17:18;;;;;;;8.30;5.88;;;;;;;10.70;92.67;96546.47;5264413;56;20647;-76
2021/09/08 02:22:20;;;;;;;8.15;5.57;;;;;;;10.73;92.18;96540.03;5265172;56;20137;-75
2021/09/08 02:27:24;;;;;;;9.07;6.00;;;;;;;10.60;92.56;96542.94;5265161;56;20636;-76
2021/09/08 02:32:27;;;;;;;9.00;5.70;;;;;;;10.52;92.25;96530.63;5265162;56;20116;-75
2021/09/08 02:37:29;;;;;;;7.72;6.28;;;;;;;10.39;92.52;96537.50;5266161;56;20122;-76
2021/09/08 02:42:32;;;;;;;9.15;6.32;;;;;;;10.38;92.37;96530.44;5255531;56;20125;-76
2021/09/08 02:47:34;;;;;;;9.30;6.60;;;;;;;10.40;92.18;96537.03;5263869;56;20621;-77
2021/09/08 02:52:36;;;;;;;7.65;6.32;;;;;;;10.36;92.46;96538.38;5263337;56;20112;-76
2021/09/08 02:57:39;;;;;;;6.70;4.68;;;;;;;10.37;92.64;96526.91;5263617;56;20143;-75
2021/09/08 03:02:41;;;;;;;5.55;4.43;;;;;;;10.47;92.58;96525.69;5263768;56;20686;-75
2021/09/08 03:07:44;;;;;;;5.25;4.75;;;;;;;10.34;92.00;96525.03;5263481;56;20134;-77
2021/09/08 03:12:46;;;;;;;5.55;4.88;;;;;;;10.24;92.41;96520.72;5263629;56;20598;-76
2021/09/08 03:17:48;;;;;;;7.50;5.50;;;;;;;10.17;92.42;96515.47;5263654;56;20125;-76
2021/09/08 03:22:51;;;;;;;7.30;6.07;;;;;;;10.30;92.46;96507.06;5263460;56;20690;-76
2021/09/08 03:27:53;;;;;;;9.82;5.65;;;;;;;10.34;91.89;96514.00;5263250;56;20227;-75
2021/09/08 03:32:56;;;;;;;7.20;5.30;;;;;;;10.18;92.02;96508.72;5263348;56;20129;-76
2021/09/08 03:37:58;;;;;;;7.50;5.82;;;;;;;10.08;92.54;96510.66;5263482;56;20132;-77
2021/09/08 03:43:01;;;;;;;9.48;6.72;;;;;;;10.08;92.70;96507.91;5263092;56;20112;-76
2021/09/08 03:48:03;;;;;;;8.45;6.90;;;;;;;10.07;92.80;96511.09;5260955;56;20120;-77
2021/09/08 03:53:06;;;;;;;8.07;6.60;;;;;;;10.13;92.57;96509.34;5259770;56;20590;-76
2021/09/08 03:58:08;;;;;;;8.40;6.22;;;;;;;10.17;92.25;96509.19;5261029;56;20124;-77
2021/09/08 04:03:10;;;;;;;8.15;6.82;;;;;;;10.18;92.30;96511.47;5253453;56;20649;-77
2021/09/08 04:08:13;;;;;;;7.97;5.63;;;;;;;10.27;92.52;96508.00;5259165;56;20102;-77
2021/09/08 04:13:15;;;;;;;8.48;6.28;;;;;;;10.25;92.58;96504.91;5284191;56;20137;-76
2021/09/08 04:18:18;;;;;;;7.47;5.90;;;;;;;10.15;93.21;96497.84;5283237;56;20119;-76
2021/09/08 04:23:20;;;;;;;9.13;6.95;;;;;;;10.10;93.07;96502.69;5283976;56;20148;-76
2021/09/08 04:28:23;;;;;;;9.55;6.63;;;;;;;10.08;93.06;96499.63;5283305;56;20694;-76
2021/09/08 04:33:25;;;;;;;9.35;6.15;;;;;;;10.08;92.96;96494.09;5283610;56;20543;-76
2021/09/08 04:38:28;;;;;;;7.90;6.30;;;;;;;10.06;92.81;96496.53;5283210;56;20146;-76
2021/09/08 04:43:30;;;;;;;11.70;6.18;;;;;;;10.03;92.65;96500.22;5283990;56;20148;-77
2021/09/08 04:48:33;;;;;;;9.40;6.78;;;;;;;10.10;92.28;96488.13;5280799;56;20659;-76
2021/09/08 04:53:35;;;;;;;7.90;6.47;;;;;;;10.08;92.45;96501.63;5280643;56;20662;-77
2021/09/08 04:58:37;;;;;;;8.95;7.25;;;;;;;10.12;92.70;96507.00;5282060;56;20290;-76
2021/09/08 05:03:41;;;;;;;9.70;7.30;;;;;;;10.23;92.39;96507.34;5284523;56;20177;-76
2021/09/08 05:08:45;;;;;;;10.77;7.65;;;;;;;10.31;92.52;96503.09;5284498;56;20129;-77
2021/09/08 05:13:47;;;;;;;10.80;6.40;;;;;;;10.33;92.67;96506.94;5286196;56;20116;-77
2021/09/08 05:18:50;;;;;;;9.35;7.60;;;;;;;10.55;92.24;96509.59;5286014;56;20164;-77
2021/09/08 05:23:53;;;;;;;10.82;7.40;;;;;;;10.76;91.85;96512.25;5286654;56;20201;-76
2021/09/08 05:28:55;;;;;;;9.10;7.53;;;;;;;10.92;91.86;96519.50;5285838;56;20137;-77
2021/09/08 05:33:57;;;;;;;14.27;9.05;;;;;;;11.05;91.78;96522.88;5286445;56;20579;-77
2021/09/08 05:39:00;;;;;;;12.07;9.25;;;;;;;11.28;91.62;96513.19;5286067;56;20673;-76
2021/09/08 05:44:02;;;;;;;15.65;9.82;;;;;;;11.38;91.78;96512.72;5290716;56;20133;-77
2021/09/08 05:49:04;;;;;;;14.15;10.00;;;;;;;11.62;92.68;96515.63;5291670;56;20120;-77
2021/09/08 05:54:07;;;;;;;20.15;11.77;;;;;;;11.91;94.24;96509.56;5286288;56;20116;-77
2021/09/08 05:59:09;;;;;;;23.00;13.52;;;;;;;12.28;95.17;96513.72;5276648;56;20543;-77
2021/09/08 06:04:12;;;;;;;21.80;14.13;;;;;;;12.51;95.69;96509.47;5285814;56;20120;-77
2021/09/08 06:09:14;;;;;;;20.38;14.40;;;;;;;12.74;95.82;96503.94;5285214;56;20847;-76
2021/09/08 06:14:16;;;;;;;25.35;15.32;;;;;;;12.92;97.26;96503.03;5276665;56;20128;-76
2021/09/08 06:19:19;;;;;;;22.33;15.20;;;;;;;13.20;95.58;96501.63;5285268;56;20128;-77
2021/09/08 06:24:21;;;;;;;25.20;15.15;;;;;;;13.51;95.20;96506.75;5285509;56;20124;-75
2021/09/08 06:29:24;;;;;;;23.80;15.57;;;;;;;13.59;94.93;96491.25;5284907;56;20111;-77
2021/09/08 06:34:26;;;;;;;23.25;15.68;;;;;;;13.72;95.71;96497.28;5285635;56;20098;-77
2021/09/08 06:39:29;;;;;;;25.75;16.17;;;;;;;13.95;95.18;96493.66;5285041;56;20137;-78
2021/09/08 06:44:32;;;;;;;23.67;16.55;;;;;;;14.20;95.24;96497.84;5276128;56;20111;-77
2021/09/08 06:49:34;;;;;;;27.25;17.13;;;;;;;14.45;93.63;96480.53;5284792;56;21018;-76
2021/09/08 06:54:37;;;;;;;23.50;15.48;;;;;;;14.48;93.40;96474.00;5276027;56;20115;-76
2021/09/08 06:59:40;;;;;;;25.02;16.13;;;;;;;14.74;93.62;96479.69;5284877;56;20133;-76
2021/09/08 07:04:43;;;;;;;26.70;16.40;;;;;;;14.95;92.56;96476.41;5272497;56;20116;-76
2021/09/08 07:09:46;;;;;;;20.20;14.55;;;;;;;15.07;91.49;96480.88;5263546;56;20116;-76
2021/09/08 07:14:48;;;;;;;22.73;15.10;;;;;;;15.39;91.48;96465.03;5263698;56;20125;-76
2021/09/08 07:19:50;;;;;;;26.67;16.75;;;;;;;15.49;90.77;96468.44;5263021;56;20220;-76
2021/09/08 07:24:53;;;;;;;23.40;15.35;;;;;;;15.84;88.21;96465.47;5262957;56;20160;-77
2021/09/08 07:29:55;;;;;;;20.45;14.48;;;;;;;15.99;87.01;96472.44;5263527;56;20633;-75
2021/09/08 07:35:00;;;;;;;22.75;15.20;;;;;;;16.22;88.04;96476.16;5263724;56;20116;-75
2021/09/08 07:40:05;;;;;;;22.08;14.82;;;;;;;16.57;85.53;96473.91;5264125;56;20129;-74
2021/09/08 07:45:08;;;;;;;18.58;13.68;;;;;;;16.71;85.29;96473.00;5272724;56;20116;-75
2021/09/08 07:50:11;;;;;;;18.48;13.52;;;;;;;17.05;84.70;96473.91;5258118;56;20743;-75
2021/09/08 07:55:14;;;;;;;20.00;12.80;;;;;;;17.24;82.40;96461.03;5257356;56;20122;-74
2021/09/08 08:00:16;;;;;;;17.23;12.52;;;;;;;17.46;80.27;96463.13;5252234;56;20530;-75
2021/09/08 08:05:20;;;;;;;18.50;11.93;;;;;;;17.65;79.27;96462.16;5251431;56;20232;-76
2021/09/08 08:10:22;;;;;;;18.17;12.15;;;;;;;18.02;79.65;96469.56;5261038;56;20598;-76
2021/09/08 08:15:25;;;;;;;20.00;12.65;;;;;;;18.23;78.96;96457.59;5275566;56;20128;-76
2021/09/08 08:20:27;;;;;;;16.67;11.82;;;;;;;18.46;78.31;96464.75;5278976;56;20151;-76
2021/09/08 08:25:31;;;;;;;13.18;10.05;;;;;;;18.81;75.30;96460.59;5261191;56;20094;-76
2021/09/08 08:30:34;;;;;;;15.52;11.95;;;;;;;19.02;74.10;96461.81;5256128;56;20657;-76
2021/09/08 08:35:37;;;;;;;17.70;11.30;;;;;;;19.68;72.19;96455.09;5266760;56;20129;-76
2021/09/08 08:40:39;;;;;;;15.18;10.48;;;;;;;20.45;69.58;96457.34;5283392;56;20128;-76
2021/09/08 08:45:42;;;;;;;14.60;10.52;;;;;;;21.24;65.80;96467.22;5282790;56;20623;-76
2021/09/08 08:50:44;;;;;;;15.02;11.77;;;;;;;21.32;63.84;96459.72;5276009;56;20111;-76
2021/09/08 08:55:46;;;;;;;14.98;10.63;;;;;;;22.18;62.69;96450.31;5280715;56;20133;-77
2021/09/08 09:01:24;;;;;;;13.68;10.45;;;;;;;22.88;59.12;96449.59;5263799;56;20113;-75
2021/09/08 09:06:28;;;;;;;19.38;11.95;;;;;;;22.41;64.42;96443.75;5258092;56;20107;-75
2021/09/08 09:11:31;;;;;;;17.58;10.57;;;;;;;22.23;64.03;96444.56;5254173;56;20680;-74
2021/09/08 09:16:39;;;;;;;15.15;11.10;;;;;;;22.70;59.79;96442.75;5257031;56;20132;-75
2021/09/08 09:21:43;;;;;;;16.15;11.90;;;;;;;23.02;58.11;96447.53;5277451;56;20593;-75
2021/09/08 09:26:45;;;;;;;13.30;10.55;;;;;;;23.54;57.77;96436.22;5282386;56;20807;-75
2021/09/08 09:31:54;;;;;;;16.13;11.10;;;;;;;24.07;57.99;96442.44;5268795;56;20107;-75
2021/09/08 09:37:00;;;;;;;15.40;11.60;;;;;;;24.30;57.11;96434.94;5282132;56;20120;-75
2021/09/08 09:42:12;;;;;;;13.73;10.63;;;;;;;23.79;55.89;96423.31;5283034;56;20138;-76
2021/09/08 09:47:18;;;;;;;11.95;9.93;;;;;;;24.39;56.55;96413.94;5285926;56;20115;-75
2021/09/08 09:52:24;;;;;;;15.30;10.30;;;;;;;23.94;57.50;96414.25;5286219;56;20119;-75
2021/09/08 09:57:27;;;;;;;14.77;10.25;;;;;;;24.13;56.87;96409.94;5285642;56;20136;-75
2021/09/08 10:02:30;;;;;;;12.75;10.23;;;;;;;23.59;56.11;96400.72;5275233;56;20119;-75
2021/09/08 10:07:35;;;;;;;14.27;11.45;;;;;;;24.92;58.17;96393.22;5283238;56;20111;-75
2021/09/08 10:12:45;;;;;;;11.13;9.63;;;;;;;25.48;55.24;96398.06;5282979;56;20119;-75
2021/09/08 10:17:48;;;;;;;13.23;9.57;;;;;;;25.53;53.07;96391.47;5282965;56;20133;-75
2021/09/08 10:22:51;;;;;;;12.88;10.02;;;;;;;25.79;52.76;96389.66;5285107;56;20124;-75
2021/09/08 10:27:55;;;;;;;11.60;9.65;;;;;;;25.62;54.96;96385.25;5285280;56;20111;-76
2021/09/08 10:33:13;;;;;;;11.43;9.25;;;;;;;25.57;53.10;96377.72;5285421;56;20124;-75
2021/09/08 10:38:23;;;;;;;14.68;10.20;;;;;;;26.34;53.14;96365.19;5285059;56;20115;-75
2021/09/08 10:43:36;;;;;;;14.80;10.65;;;;;;;25.60;51.37;96365.25;5285126;56;20124;-76
2021/09/08 10:48:42;;;;;;;15.75;10.20;;;;;;;25.28;52.70;96364.94;5284917;56;20120;-75
2021/09/08 10:54:01;;;;;;;15.55;9.43;;;;;;;26.20;52.12;96347.63;5284957;56;20201;-75
2021/09/08 10:59:03;;;;;;;13.68;9.05;;;;;;;26.70;50.68;96345.13;5275499;56;20155;-76
2021/09/08 11:04:12;;;;;;;10.27;8.38;;;;;;;27.35;50.80;96349.66;5276089;56;20133;-76
2021/09/08 11:09:17;;;;;;;9.43;8.52;;;;;;;26.29;53.04;96326.47;5284596;56;20168;-76
2021/09/08 11:14:21;;;;;;;10.63;8.10;;;;;;;27.17;50.76;96345.19;5284890;56;20825;-76
2021/09/08 11:19:24;;;;;;;9.55;7.97;;;;;;;27.35;48.53;96326.94;5284285;56;20133;-76
2021/09/08 11:24:31;;;;;;;10.38;7.20;;;;;;;27.59;46.27;96317.03;5284863;56;20119;-76
2021/09/08 11:29:36;;;;;;;12.20;7.75;;;;;;;26.32;50.51;96314.72;5275396;56;20642;-75
2021/09/08 11:34:46;;;;;;;10.32;7.90;;;;;;;26.95;49.74;96312.75;5284694;56;20119;-75
2021/09/08 11:39:49;;;;;;;9.45;8.38;;;;;;;26.53;49.31;96323.03;5284102;56;20137;-76
2021/09/08 11:44:55;;;;;;;10.43;7.68;;;;;;;26.57;48.59;96311.31;5284213;56;20107;-76
2021/09/08 11:49:59;;;;;;;10.68;7.22;;;;;;;27.18;52.21;96320.41;5284762;56;20115;-76
2021/09/08 11:55:02;;;;;;;7.82;7.05;;;;;;;26.66;48.21;96317.16;5284356;56;20114;-76
2021/09/08 12:00:06;;;;;;;9.60;7.60;;;;;;;26.69;48.47;96315.25;5283842;56;20137;-75
2021/09/08 12:05:22;;;;;;;10.13;7.40;;;;;;;26.82;49.50;96315.81;5284256;56;20111;-76
2021/09/08 12:10:35;;;;;;;10.43;7.93;;;;;;;27.51;48.27;96302.84;5284219;56;20119;-74
2021/09/08 12:15:43;;;;;;;14.30;7.30;;;;;;;27.62;50.31;96307.31;5283835;56;20127;-76
2021/09/08 12:20:45;;;;;;;10.98;7.50;;;;;;;27.77;47.60;96293.03;5283662;56;20137;-76
2021/09/08 12:26:07;;;;;;;8.77;7.82;;;;;;;28.01;48.99;96300.84;5283950;56;20119;-75
2021/09/08 12:31:17;;;;;;;12.18;7.85;;;;;;;27.63;48.26;96286.13;5284878;56;20119;-76
2021/09/08 12:36:20;;;;;;;10.18;7.00;;;;;;;27.54;48.51;96275.41;5283724;56;20119;-77
2021/09/08 12:41:27;;;;;;;10.25;6.70;;;;;;;28.23;47.39;96277.16;5283452;56;20138;-77
2021/09/08 12:46:44;;;;;;;6.75;6.03;;;;;;;28.01;43.95;96271.66;5283980;56;20115;-76
2021/09/08 12:51:47;;;;;;;8.43;6.88;;;;;;;27.12;46.38;96260.28;5283619;56;20262;-76
2021/09/08 12:56:52;;;;;;;7.47;6.30;;;;;;;28.19;47.15;96253.31;5283103;56;20129;-76
2021/09/08 13:01:54;;;;;;;7.63;6.28;;;;;;;28.15;46.12;96262.28;5283114;56;20709;-76
2021/09/08 13:06:57;;;;;;;7.07;5.60;;;;;;;28.62;47.00;96241.34;5282915;56;20120;-76
2021/09/08 13:12:01;;;;;;;5.68;5.18;;;;;;;28.53;42.33;96244.06;5283046;56;20651;-75
2021/09/08 13:17:03;;;;;;;5.90;5.30;;;;;;;28.89;42.14;96232.84;5282607;56;20120;-76
2021/09/08 13:22:05;;;;;;;8.43;6.80;;;;;;;28.26;46.69;96233.38;5286224;56;20187;-78
2021/09/08 13:27:08;;;;;;;10.15;6.60;;;;;;;28.85;44.99;96229.69;5286327;56;20129;-76
2021/09/08 13:32:10;;;;;;;6.22;5.60;;;;;;;29.00;42.50;96229.50;5277522;56;20128;-75
2021/09/08 13:37:12;;;;;;;7.38;5.20;;;;;;;28.89;41.92;96216.56;5286085;56;20767;-75
2021/09/08 13:42:15;;;;;;;8.35;5.78;;;;;;;29.03;41.98;96208.41;5286080;56;20119;-77
2021/09/08 13:47:17;;;;;;;9.55;6.85;;;;;;;28.05;43.71;96193.22;5286024;56;20120;-76
2021/09/08 13:52:20;;;;;;;9.13;6.53;;;;;;;28.49;43.60;96187.63;5286140;56;20138;-77
2021/09/08 13:57:22;;;;;;;9.07;6.10;;;;;;;28.47;44.11;96198.84;5285895;56;20133;-76
2021/09/08 14:02:24;;;;;;;7.60;6.00;;;;;;;27.71;44.95;96181.75;5290483;56;20138;-76
2021/09/08 14:07:27;;;;;;;7.57;5.85;;;;;;;28.30;45.15;96178.94;5286138;56;20142;-76
2021/09/08 14:12:30;;;;;;;7.68;5.78;;;;;;;28.07;42.99;96184.09;5286425;56;20462;-76
2021/09/08 14:17:32;;;;;;;6.15;5.53;;;;;;;28.21;43.29;96174.69;5303897;56;20106;-77
2021/09/08 14:22:35;;;;;;;8.30;5.55;;;;;;;28.43;42.48;96175.75;5291212;56;20228;-77
2021/09/08 14:27:38;;;;;;;6.03;5.35;;;;;;;27.69;43.80;96168.16;5285336;56;20133;-77
2021/09/08 14:32:40;;;;;;;7.85;5.40;;;;;;;27.65;43.77;96167.06;5285504;56;20304;-76
2021/09/08 14:37:43;;;;;;;5.82;5.22;;;;;;;27.49;45.20;96155.06;5285324;56;20120;-76
2021/09/08 14:42:46;;;;;;;9.50;5.78;;;;;;;27.83;43.70;96156.47;5285495;56;20195;-77
2021/09/08 14:47:48;;;;;;;8.50;5.47;;;;;;;27.78;45.68;96149.69;5284880;56;20111;-77
2021/09/08 14:52:51;;;;;;;7.18;5.82;;;;;;;27.22;45.98;96151.28;5267680;56;20132;-76
2021/09/08 14:57:54;;;;;;;8.77;6.28;;;;;;;27.12;45.15;96146.81;5284827;56;20116;-77
2021/09/08 15:02:56;;;;;;;6.22;5.63;;;;;;;26.87;47.76;96149.59;5284888;56;20664;-76
2021/09/08 15:08:00;;;;;;;6.20;5.35;;;;;;;26.86;47.80;96140.38;5284728;56;20119;-76
2021/09/08 15:13:03;;;;;;;7.60;5.78;;;;;;;26.47;48.57;96138.25;5285201;56;20134;-77
2021/09/08 15:18:05;;;;;;;7.93;6.07;;;;;;;26.15;48.37;96135.38;5286127;56;20115;-75
2021/09/08 15:23:12;;;;;;;6.40;5.32;;;;;;;25.79;49.61;96120.69;5284893;56;20128;-76
2021/09/08 15:28:14;;;;;;;6.95;5.72;;;;;;;25.82;50.84;96119.56;5284413;56;20206;-76
2021/09/08 15:33:17;;;;;;;8.98;5.82;;;;;;;25.74;50.65;96116.75;5285011;56;20111;-76
2021/09/08 15:38:19;;;;;;;6.93;5.65;;;;;;;25.41;51.46;96104.50;5275836;56;20159;-76
2021/09/08 15:43:21;;;;;;;7.43;5.38;;;;;;;25.16;53.15;96114.88;5283674;56;20128;-73
2021/09/08 15:48:24;;;;;;;7.72;6.25;;;;;;;25.01;53.21;96112.06;5284080;56;20263;-74
2021/09/08 15:53:26;;;;;;;6.20;5.32;;;;;;;24.89;54.10;96093.94;5283893;56;20129;-75
2021/09/08 15:58:31;;;;;;;8.02;5.50;;;;;;;24.72;54.39;96100.09;5283537;56;20123;-76
2021/09/08 16:03:33;;;;;;;7.82;5.75;;;;;;;24.60;53.57;96096.13;5283835;56;20128;-77
2021/09/08 16:08:37;;;;;;;6.00;4.95;;;;;;;24.45;54.85;96089.69;5283979;56;20158;-76
2021/09/08 16:13:39;;;;;;;5.60;5.10;;;;;;;24.18;54.35;96089.97;5281259;56;20117;-75
2021/09/08 16:18:42;;;;;;;9.07;5.55;;;;;;;24.23;54.42;96091.88;5257727;56;20124;-76
2021/09/08 16:23:44;;;;;;;6.45;5.18;;;;;;;24.02;56.47;96082.72;5262680;56;20682;-77
2021/09/08 16:28:47;;;;;;;6.22;5.55;;;;;;;23.78;57.41;96088.81;5261897;56;20580;-76
2021/09/08 16:33:50;;;;;;;5.70;5.10;;;;;;;23.73;56.91;96081.25;5262408;56;20202;-76
2021/09/08 16:38:52;;;;;;;5.97;5.38;;;;;;;23.58;57.37;96077.59;5262411;56;20138;-75
2021/09/08 16:43:54;;;;;;;6.65;5.38;;;;;;;23.48;56.19;96069.66;5262250;56;20133;-76
2021/09/08 16:48:57;;;;;;;8.30;4.80;;;;;;;23.34;57.87;96067.47;5262249;56;20139;-76
2021/09/08 16:54:00;;;;;;;8.63;5.55;;;;;;;23.24;58.06;96072.84;5264227;56;20217;-76
2021/09/08 16:59:02;;;;;;;9.82;4.82;;;;;;;22.93;59.99;96071.09;5264850;56;20652;-76
2021/09/08 17:04:05;;;;;;;7.45;5.75;;;;;;;22.81;59.79;96073.44;5265539;56;20125;-75
2021/09/08 17:20:24;;;;;;;6.10;5.43;;;;;;;21.96;64.83;96069.50;5403563;45;20258;-76
2021/09/08 17:25:26;;;;;;;9.60;5.72;;;;;;;21.72;65.74;96077.41;5202044;57;20162;-75
2021/09/08 17:30:29;;;;;;;5.70;4.95;;;;;;;21.43;68.64;96065.19;5202829;57;20109;-76
2021/09/08 17:35:32;;;;;;;9.57;6.25;;;;;;;21.09;69.27;96070.69;5202567;57;20215;-75
2021/09/08 17:40:34;;;;;;;10.65;6.07;;;;;;;20.94;71.84;96072.47;5202560;57;20128;-75
2021/09/08 17:45:37;;;;;;;8.35;6.13;;;;;;;20.56;73.07;96066.22;5202400;57;20141;-76
2021/09/08 17:50:42;;;;;;;7.03;6.32;;;;;;;20.28;75.45;96061.03;5202503;57;20127;-76
2021/09/08 17:55:46;;;;;;;7.20;5.90;;;;;;;19.99;77.69;96059.16;5202211;57;20815;-76
2021/09/08 18:00:48;;;;;;;6.97;6.20;;;;;;;19.78;79.58;96064.53;5203036;57;20265;-76
2021/09/08 18:05:51;;;;;;;6.60;5.88;;;;;;;19.63;80.53;96069.06;5201916;57;20158;-75
2021/09/08 18:10:53;;;;;;;6.10;5.50;;;;;;;19.48;81.39;96071.53;5202161;57;20136;-76
2021/09/08 18:15:56;;;;;;;7.20;6.00;;;;;;;19.22;81.98;96084.00;5202001;57;20672;-76
2021/09/08 18:20:58;;;;;;;6.57;5.65;;;;;;;19.10;82.74;96091.00;5202286;57;20128;-76
2021/09/08 18:26:01;;;;;;;8.45;6.43;;;;;;;19.00;83.59;96091.88;5202652;57;20132;-76
2021/09/08 18:31:03;;;;;;;7.90;5.85;;;;;;;18.93;83.96;96093.19;5203681;57;20132;-75
2021/09/08 18:36:05;;;;;;;8.38;6.00;;;;;;;18.71;84.81;96093.41;5201188;57;20123;-75
2021/09/08 18:41:08;;;;;;;6.70;6.03;;;;;;;18.49;85.13;96088.75;5191512;57;20576;-76
2021/09/08 18:46:10;;;;;;;7.15;6.18;;;;;;;18.40;86.20;96091.84;5201046;57;20132;-75
2021/09/08 18:51:14;;;;;;;9.57;5.90;;;;;;;18.40;86.29;96093.88;5201515;57;20584;-77
2021/09/08 18:56:16;;;;;;;8.48;6.03;;;;;;;18.27;86.66;96097.25;5201630;57;20124;-76
2021/09/08 19:01:19;;;;;;;9.95;6.32;;;;;;;18.15;87.10;96083.88;5201349;57;20158;-78
2021/09/08 19:06:22;;;;;;;8.93;6.50;;;;;;;17.99;87.94;96090.31;5201182;57;20123;-76
2021/09/08 19:11:24;;;;;;;7.25;5.97;;;;;;;17.89;89.75;96082.25;5201775;56;20119;-77
2021/09/08 19:16:27;;;;;;;7.53;6.35;;;;;;;17.85;88.85;96086.59;5200248;57;20141;-76
2021/09/08 19:21:29;;;;;;;10.90;6.43;;;;;;;17.79;89.31;96080.25;5201100;57;20119;-76
2021/09/08 19:26:32;;;;;;;11.88;6.25;;;;;;;17.57;89.57;96080.38;5200801;57;20671;-76
2021/09/08 19:31:34;;;;;;;9.65;6.68;;;;;;;17.48;89.39;96081.38;5200930;57;20132;-77
2021/09/08 19:36:37;;;;;;;9.27;6.30;;;;;;;17.46;90.12;96083.91;5203475;56;20123;-77
2021/09/08 19:41:39;;;;;;;8.20;5.97;;;;;;;17.20;90.84;96072.34;5200824;57;20124;-76
2021/09/08 19:46:42;;;;;;;8.18;6.38;;;;;;;17.11;91.11;96075.41;5200543;57;20597;-76
2021/09/08 19:51:44;;;;;;;8.82;6.63;;;;;;;17.33;90.24;96069.75;5200477;57;20127;-76
2021/09/08 19:56:47;;;;;;;7.90;7.03;;;;;;;17.05;91.12;96069.81;5200298;57;20114;-76
2021/09/08 20:01:50;;;;;;;12.23;6.47;;;;;;;16.84;91.44;96062.28;5256873;46;20136;-76
2021/09/08 20:06:53;;;;;;;9.25;6.65;;;;;;;16.78;91.54;96058.75;5199013;56;20291;-77
2021/09/08 20:11:56;;;;;;;8.23;6.07;;;;;;;16.73;92.46;96063.06;5179445;56;20557;-74
2021/09/08 20:16:58;;;;;;;8.50;6.18;;;;;;;16.68;91.93;96058.22;5175521;57;20120;-76
2021/09/08 20:22:02;;;;;;;8.18;6.00;;;;;;;16.56;92.65;96059.50;5178750;57;20203;-76
2021/09/08 20:27:05;;;;;;;9.02;6.55;;;;;;;16.45;92.53;96053.91;5178268;57;20111;-76
2021/09/08 20:32:07;;;;;;;9.82;6.53;;;;;;;16.38;93.10;96060.75;5179230;57;20124;-76
2021/09/08 20:37:10;;;;;;;6.85;6.18;;;;;;;16.30;92.75;96053.41;5178992;57;20124;-74
2021/09/08 20:42:12;;;;;;;8.32;6.75;;;;;;;16.24;92.66;96055.41;5178995;57;20138;-74
2021/09/08 20:47:14;;;;;;;8.52;6.88;;;;;;;16.19;92.20;96059.72;5179601;57;20115;-75
2021/09/08 20:52:17;;;;;;;8.25;6.45;;;;;;;16.18;92.71;96054.66;5178824;57;20597;-75
2021/09/08 20:57:19;;;;;;;10.63;6.60;;;;;;;16.09;93.08;96058.44;5178975;57;20111;-75
2021/09/08 21:02:21;;;;;;;7.05;6.07;;;;;;;15.92;92.62;96051.34;5169812;57;20120;-75
2021/09/08 21:07:24;;;;;;;9.00;6.90;;;;;;;15.94;92.47;96052.34;5178679;57;20128;-75
2021/09/08 21:12:26;;;;;;;7.72;6.93;;;;;;;15.86;93.20;96054.09;5178833;57;20124;-74
2021/09/08 21:17:30;;;;;;;9.77;6.15;;;;;;;15.75;92.76;96054.06;5178898;57;20134;-74
2021/09/08 21:22:32;;;;;;;9.35;6.68;;;;;;;15.80;93.01;96056.13;5178221;57;20119;-74
2021/09/08 21:27:35;;;;;;;8.07;6.13;;;;;;;15.75;92.51;96052.06;5178623;57;20120;-74
2021/09/08 21:32:37;;;;;;;6.85;5.90;;;;;;;15.66;93.29;96045.94;5178050;57;20136;-75
2021/09/08 21:37:39;;;;;;;7.35;6.30;;;;;;;15.61;93.33;96046.69;5178931;57;20146;-75
2021/09/08 21:42:42;;;;;;;7.68;6.50;;;;;;;15.58;93.79;96045.66;5180444;57;20142;-75
2021/09/08 21:47:46;;;;;;;7.00;6.13;;;;;;;15.56;93.63;96048.19;5179982;57;20120;-74
2021/09/08 21:52:48;;;;;;;8.35;5.88;;;;;;;15.52;93.37;96039.31;5180567;57;20753;-75
2021/09/08 21:57:51;;;;;;;6.95;5.50;;;;;;;15.46;93.84;96044.13;5179821;57;20098;-75
2021/09/08 22:02:54;;;;;;;5.75;5.00;;;;;;;15.26;94.06;96037.94;5180987;57;20594;-74
2021/09/08 22:07:57;;;;;;;6.05;5.45;;;;;;;15.35;94.11;96046.06;5181329;57;20710;-72
2021/09/08 22:13:00;;;;;;;5.82;5.20;;;;;;;15.33;93.01;96040.25;5181831;57;20676;-74
2021/09/08 22:18:03;;;;;;;7.53;6.70;;;;;;;15.26;93.82;96037.94;5179840;57;20727;-74
2021/09/08 22:23:06;;;;;;;7.30;6.30;;;;;;;15.06;94.14;96028.47;5181249;57;20725;-74
2021/09/08 22:28:10;;;;;;;7.82;6.85;;;;;;;15.01;94.53;96032.03;5181482;57;20691;-74
2021/09/08 22:33:12;;;;;;;7.22;6.15;;;;;;;14.93;94.07;96030.19;5181914;57;20305;-75
2021/09/08 22:38:16;;;;;;;9.77;7.13;;;;;;;14.90;94.17;96028.41;5181712;57;20164;-74
2021/09/08 22:43:20;;;;;;;9.02;7.28;;;;;;;14.86;94.83;96033.44;5181511;57;20664;-74
2021/09/08 22:48:25;;;;;;;8.90;6.82;;;;;;;14.82;94.85;96039.25;5181240;57;20138;-76
2021/09/08 22:53:28;;;;;;;7.93;7.10;;;;;;;14.83;94.61;96034.44;5181077;57;20176;-75
2021/09/08 22:58:30;;;;;;;9.45;7.32;;;;;;;14.84;94.08;96038.72;5180868;57;20128;-75
2021/09/08 23:03:33;;;;;;;9.52;6.68;;;;;;;14.91;93.75;96027.13;5181061;57;20132;-75
2021/09/08 23:08:35;;;;;;;11.57;7.50;;;;;;;14.75;94.24;96048.03;5180887;57;20562;-75
2021/09/08 23:13:37;;;;;;;10.30;7.43;;;;;;;14.68;94.10;96040.16;5180931;57;20243;-75
2021/09/08 23:18:40;;;;;;;8.95;7.13;;;;;;;14.71;94.67;96041.94;5180645;57;20133;-75
2021/09/08 23:23:42;;;;;;;8.38;6.80;;;;;;;14.65;93.95;96037.63;5172029;57;20652;-75
2021/09/08 23:28:44;;;;;;;8.70;6.93;;;;;;;14.71;93.77;96039.16;5180791;57;20129;-75
2021/09/08 23:33:47;;;;;;;8.95;6.90;;;;;;;14.68;93.36;96042.16;5180892;57;20120;-75
2021/09/08 23:38:49;;;;;;;9.65;7.45;;;;;;;14.70;93.23;96037.63;5180392;57;20137;-75
2021/09/08 23:43:51;;;;;;;8.70;6.32;;;;;;;14.46;94.19;96047.59;5180389;57;20142;-75
2021/09/08 23:48:54;;;;;;;9.52;7.28;;;;;;;14.40;94.35;96049.56;5180193;57;20136;-75